createdAt,value
2022-12-06T00:02:25.492Z,28.40
2022-12-06T00:04:58.917Z,25.20
2022-12-06T00:07:33.355Z,31.10
2022-12-06T00:10:07.759Z,31.90
2022-12-06T00:12:39.668Z,34.80
2022-12-06T00:15:13.465Z,34.40
2022-12-06T00:17:45.365Z,30.00
2022-12-06T00:20:14.106Z,32.70
2022-12-06T00:22:46.285Z,32.60
2022-12-06T00:25:22.660Z,33.90
2022-12-06T00:27:56.076Z,36.00
2022-12-06T00:30:28.559Z,34.80
2022-12-06T00:32:57.313Z,33.40
2022-12-06T00:35:26.382Z,35.10
2022-12-06T00:37:55.193Z,34.00
2022-12-06T00:40:29.216Z,33.50
2022-12-06T00:43:03.510Z,36.00
2022-12-06T00:45:36.699Z,28.30
2022-12-06T00:48:05.827Z,36.40
2022-12-06T00:50:39.606Z,37.20
2022-12-06T00:53:16.694Z,33.20
2022-12-06T00:55:46.295Z,27.20
2022-12-06T00:58:19.486Z,33.40
2022-12-06T01:00:49.381Z,33.40
2022-12-06T01:03:23.359Z,34.90
2022-12-06T01:05:55.264Z,35.10
2022-12-06T01:08:24.128Z,36.80
2022-12-06T01:10:54.994Z,36.70
2022-12-06T01:13:28.719Z,36.30
2022-12-06T01:15:57.984Z,36.90
2022-12-06T01:18:31.505Z,37.60
2022-12-06T01:21:25.764Z,36.50
2022-12-06T01:24:02.395Z,38.10
2022-12-06T01:26:36.646Z,39.80
2022-12-06T01:29:20.696Z,39.40
2022-12-06T01:32:00.414Z,35.70
2022-12-06T01:34:33.536Z,40.30
2022-12-06T01:37:06.124Z,37.90
2022-12-06T01:39:40.257Z,38.40
2022-12-06T01:42:16.492Z,39.00
2022-12-06T01:44:54.396Z,39.70
2022-12-06T01:47:35.241Z,35.40
2022-12-06T01:50:14.021Z,36.20
2022-12-06T01:53:25.285Z,38.70
2022-12-06T01:55:55.407Z,36.40
2022-12-06T01:58:39.567Z,35.60
2022-12-06T02:01:14.756Z,37.70
2022-12-06T02:03:45.218Z,41.90
2022-12-06T02:06:15.980Z,38.40
2022-12-06T02:08:46.619Z,41.00
2022-12-06T02:11:15.579Z,41.40
2022-12-06T02:13:45.085Z,41.00
2022-12-06T02:16:41.543Z,42.70
2022-12-06T02:19:22.920Z,40.60
2022-12-06T02:22:31.365Z,44.10
2022-12-06T02:25:51.229Z,42.30
2022-12-06T02:29:30.624Z,43.60
2022-12-06T02:32:14.926Z,41.90
2022-12-06T02:35:27.467Z,44.10
2022-12-06T02:38:14.076Z,42.70
2022-12-06T02:41:00.313Z,43.80
2022-12-06T02:43:46.854Z,41.10
2022-12-06T02:46:23.883Z,42.00
2022-12-06T02:49:07.133Z,31.00
2022-12-06T02:51:54.985Z,42.60
2022-12-06T02:54:31.865Z,40.30
2022-12-06T02:57:05.524Z,40.60
2022-12-06T02:59:38.284Z,40.40
2022-12-06T03:02:12.141Z,43.90
2022-12-06T03:05:00.760Z,39.80
2022-12-06T03:07:44.680Z,41.70
2022-12-06T03:10:38.862Z,41.90
2022-12-06T03:13:56.425Z,42.20
2022-12-06T03:16:56.304Z,40.60
2022-12-06T03:19:31.789Z,39.80
2022-12-06T03:22:21.825Z,38.70
2022-12-06T03:25:01.167Z,39.80
2022-12-06T03:27:36.789Z,38.10
2022-12-06T03:30:12.979Z,36.70
2022-12-06T03:32:48.201Z,39.70
2022-12-06T03:35:27.739Z,40.80
2022-12-06T03:38:05.905Z,40.10
2022-12-06T03:40:38.459Z,39.20
2022-12-06T03:43:08.041Z,38.90
2022-12-06T03:45:59.961Z,38.20
2022-12-06T03:48:44.021Z,37.10
2022-12-06T03:51:27.378Z,36.10
2022-12-06T03:54:05.897Z,36.80
2022-12-06T03:56:41.321Z,39.60
2022-12-06T03:59:13.530Z,37.60
2022-12-06T04:01:42.373Z,38.90
2022-12-06T04:04:11.722Z,36.80
2022-12-06T04:06:40.637Z,39.10
2022-12-06T04:09:31.851Z,38.10
2022-12-06T04:12:00.545Z,37.30
2022-12-06T04:14:32.797Z,35.10
2022-12-06T04:17:24.831Z,34.90
2022-12-06T04:19:57.181Z,32.60
2022-12-06T04:22:44.703Z,33.10
2022-12-06T04:25:13.346Z,33.00
2022-12-06T04:28:00.656Z,29.60
2022-12-06T04:30:48.098Z,24.10
2022-12-06T04:33:38.417Z,26.30
2022-12-06T04:36:32.239Z,24.50
2022-12-06T04:39:07.643Z,25.70
2022-12-06T04:42:18.117Z,25.20
2022-12-06T04:44:47.128Z,32.30
2022-12-06T04:47:16.158Z,35.00
2022-12-06T04:49:48.236Z,34.30
2022-12-06T04:52:22.220Z,32.00
2022-12-06T04:54:51.020Z,31.80
2022-12-06T04:57:23.583Z,29.20
2022-12-06T04:59:52.269Z,29.20
2022-12-06T05:02:21.479Z,28.90
2022-12-06T05:04:55.243Z,27.70
2022-12-06T05:07:27.554Z,20.10
2022-12-06T05:09:59.687Z,22.20
2022-12-06T05:12:33.142Z,20.60
2022-12-06T05:15:01.793Z,15.10
2022-12-06T05:17:37.959Z,15.50
2022-12-06T05:20:11.551Z,16.20
2022-12-06T05:22:45.038Z,16.20
2022-12-06T05:25:17.450Z,16.20
2022-12-06T05:27:50.178Z,17.10
2022-12-06T05:30:23.833Z,12.90
2022-12-06T05:32:57.171Z,16.10
2022-12-06T05:35:32.141Z,16.30
2022-12-06T05:38:05.436Z,16.00
2022-12-06T05:40:34.198Z,14.50
2022-12-06T05:43:06.160Z,13.10
2022-12-06T05:45:39.059Z,16.30
2022-12-06T05:48:11.068Z,12.80
2022-12-06T05:50:39.883Z,15.50
2022-12-06T05:53:10.483Z,15.40
2022-12-06T05:55:39.544Z,13.40
2022-12-06T05:58:08.822Z,13.20
2022-12-06T06:00:37.931Z,14.30
2022-12-06T06:03:07.290Z,13.90
2022-12-06T06:05:36.064Z,13.00
2022-12-06T06:08:05.184Z,12.70
2022-12-06T06:10:33.997Z,12.50
2022-12-06T06:13:02.700Z,13.50
2022-12-06T06:15:31.493Z,13.90
2022-12-06T06:18:00.284Z,13.80
2022-12-06T06:20:29.296Z,12.90
2022-12-06T06:22:58.018Z,11.80
2022-12-06T06:25:26.986Z,10.00
2022-12-06T06:27:55.671Z,10.10
2022-12-06T06:30:24.390Z,8.90
2022-12-06T06:32:52.999Z,10.20
2022-12-06T06:35:21.677Z,9.20
2022-12-06T06:37:50.295Z,10.00
2022-12-06T06:40:19.242Z,8.10
2022-12-06T06:42:48.042Z,7.60
2022-12-06T06:45:16.918Z,9.10
2022-12-06T06:47:45.582Z,8.80
2022-12-06T06:50:14.279Z,9.10
2022-12-06T06:52:43.156Z,9.50
2022-12-06T06:55:11.913Z,8.30
2022-12-06T06:57:41.579Z,7.20
2022-12-06T07:00:11.240Z,7.10
2022-12-06T07:02:40.027Z,7.60
2022-12-06T07:05:08.879Z,7.80
2022-12-06T07:07:37.993Z,6.10
2022-12-06T07:10:07.920Z,5.90
2022-12-06T07:12:36.657Z,6.90
2022-12-06T07:15:07.006Z,5.90
2022-12-06T07:17:36.575Z,6.10
2022-12-06T07:20:06.022Z,5.40
2022-12-06T07:22:34.698Z,5.10
2022-12-06T07:25:03.443Z,5.50
2022-12-06T07:27:38.140Z,5.40
2022-12-06T07:30:08.098Z,5.50
2022-12-06T07:32:38.055Z,5.40
2022-12-06T07:35:07.353Z,7.00
2022-12-06T07:37:36.199Z,7.00
2022-12-06T07:40:06.079Z,5.70
2022-12-06T07:42:53.142Z,4.80
2022-12-06T07:45:21.789Z,4.50
2022-12-06T07:47:50.538Z,5.30
2022-12-06T07:50:22.861Z,5.30
2022-12-06T07:52:52.000Z,5.50
2022-12-06T07:55:20.699Z,7.50
2022-12-06T07:57:49.299Z,5.00
2022-12-06T08:00:18.907Z,5.20
2022-12-06T08:02:47.421Z,5.20
2022-12-06T08:05:16.203Z,5.20
2022-12-06T08:07:45.166Z,6.30
2022-12-06T08:10:13.978Z,5.00
2022-12-06T08:12:42.561Z,6.00
2022-12-06T08:15:13.535Z,6.00
2022-12-06T08:17:42.704Z,5.60
2022-12-06T08:20:12.718Z,4.60
2022-12-06T08:22:41.601Z,5.30
2022-12-06T08:25:10.662Z,5.40
2022-12-06T08:27:39.179Z,5.20
2022-12-06T08:30:09.448Z,5.80
2022-12-06T08:32:38.026Z,5.00
2022-12-06T08:35:07.440Z,5.90
2022-12-06T08:37:36.059Z,5.80
2022-12-06T08:40:05.640Z,5.40
2022-12-06T08:42:34.218Z,4.10
2022-12-06T08:45:02.941Z,5.30
2022-12-06T08:47:31.538Z,4.70
2022-12-06T08:50:00.494Z,5.00
2022-12-06T08:52:29.322Z,5.70
2022-12-06T08:54:57.819Z,5.80
2022-12-06T08:57:26.559Z,4.60
2022-12-06T08:59:55.898Z,4.50
2022-12-06T09:02:24.525Z,5.10
2022-12-06T09:04:53.747Z,5.10
2022-12-06T09:07:23.742Z,4.30
2022-12-06T09:09:55.023Z,4.50
2022-12-06T09:12:24.772Z,5.00
2022-12-06T09:14:53.418Z,5.50
2022-12-06T09:17:22.079Z,5.20
2022-12-06T09:19:50.663Z,5.10
2022-12-06T09:22:19.258Z,5.60
2022-12-06T09:24:47.911Z,5.90
2022-12-06T09:27:17.165Z,5.30
2022-12-06T09:29:45.818Z,6.40
2022-12-06T09:32:14.401Z,5.00
2022-12-06T09:34:43.059Z,5.50
2022-12-06T09:37:14.230Z,5.60
2022-12-06T09:39:57.704Z,5.70
2022-12-06T09:43:14.854Z,4.90
2022-12-06T09:46:08.137Z,6.30
2022-12-06T09:49:03.595Z,5.60
2022-12-06T09:51:41.369Z,5.70
2022-12-06T09:54:25.141Z,5.50
2022-12-06T09:57:15.781Z,4.60
2022-12-06T09:59:47.321Z,5.20
2022-12-06T10:03:15.212Z,5.70
2022-12-06T10:06:24.245Z,7.00
2022-12-06T10:09:12.691Z,6.60
2022-12-06T10:11:58.053Z,5.10
2022-12-06T10:14:56.323Z,4.20
2022-12-06T10:18:01.481Z,6.20
2022-12-06T10:20:57.282Z,6.50
2022-12-06T10:24:27.081Z,6.60
2022-12-06T10:27:31.602Z,7.20
2022-12-06T10:30:14.871Z,7.60
2022-12-06T10:32:55.482Z,6.80
2022-12-06T10:35:54.664Z,6.70
2022-12-06T10:38:26.280Z,6.90
2022-12-06T10:41:06.921Z,6.70
2022-12-06T10:44:13.496Z,6.80
2022-12-06T10:47:27.566Z,5.50
2022-12-06T10:50:03.228Z,5.80
2022-12-06T10:52:58.709Z,5.60
2022-12-06T10:55:56.196Z,5.00
2022-12-06T10:58:36.677Z,4.70
2022-12-06T11:01:16.148Z,5.00
2022-12-06T11:03:53.574Z,5.40
2022-12-06T11:06:55.299Z,5.90
2022-12-06T11:09:30.116Z,4.50
2022-12-06T11:11:59.894Z,5.50
2022-12-06T11:14:47.955Z,5.20
2022-12-06T11:17:33.075Z,4.80
2022-12-06T11:20:11.134Z,4.60
2022-12-06T11:23:10.694Z,4.70
2022-12-06T11:26:18.474Z,5.20
2022-12-06T11:29:07.172Z,5.50
2022-12-06T11:32:01.745Z,5.20
2022-12-06T11:34:43.424Z,5.50
2022-12-06T11:37:25.998Z,4.10
2022-12-06T11:40:07.388Z,4.40
2022-12-06T11:42:36.135Z,4.10
2022-12-06T11:45:17.037Z,4.70
2022-12-06T11:47:47.254Z,5.30
2022-12-06T11:50:20.256Z,4.90
2022-12-06T11:53:28.364Z,4.60
2022-12-06T11:56:06.733Z,4.90
2022-12-06T11:59:08.254Z,5.20
2022-12-06T12:01:47.230Z,5.80
2022-12-06T12:04:44.405Z,6.10
2022-12-06T12:07:19.867Z,5.50
2022-12-06T12:09:57.078Z,4.20
2022-12-06T12:13:09.334Z,5.80
2022-12-06T12:15:47.946Z,6.20
2022-12-06T12:18:29.015Z,6.60
2022-12-06T12:20:59.916Z,6.50
2022-12-06T12:23:44.374Z,6.60
2022-12-06T12:26:18.955Z,5.80
2022-12-06T12:29:08.583Z,6.40
2022-12-06T12:31:52.403Z,6.30
2022-12-06T12:34:26.999Z,6.70
2022-12-06T12:37:01.155Z,6.00
2022-12-06T12:39:41.694Z,6.60
2022-12-06T12:42:35.135Z,7.00
2022-12-06T12:45:06.415Z,5.70
2022-12-06T12:47:36.614Z,5.30
2022-12-06T12:50:20.615Z,4.60
2022-12-06T12:52:50.475Z,7.00
2022-12-06T12:55:30.715Z,6.40
2022-12-06T12:58:01.539Z,5.60
2022-12-06T13:00:48.350Z,5.50
2022-12-06T13:06:41.275Z,5.20
2022-12-06T13:09:29.214Z,5.60
2022-12-06T13:12:06.414Z,4.70
2022-12-06T13:14:40.396Z,3.70
2022-12-06T13:17:13.848Z,4.10
2022-12-06T13:19:53.059Z,5.50
2022-12-06T13:22:39.273Z,4.20
2022-12-06T13:25:08.627Z,4.40
2022-12-06T13:27:52.824Z,4.30
2022-12-06T13:30:25.714Z,4.80
2022-12-06T13:33:20.952Z,4.60
2022-12-06T13:36:04.915Z,4.70
2022-12-06T13:38:38.426Z,4.10
2022-12-06T13:41:58.964Z,4.70
2022-12-06T13:44:46.760Z,5.30
2022-12-06T13:47:28.415Z,4.90
2022-12-06T13:50:00.247Z,6.00
2022-12-06T13:52:44.086Z,6.10
2022-12-06T13:55:24.961Z,5.80
2022-12-06T13:57:56.536Z,4.90
2022-12-06T14:00:31.334Z,5.00
2022-12-06T14:03:03.806Z,5.50
2022-12-06T14:08:30.494Z,5.30
2022-12-06T14:11:16.098Z,5.20
2022-12-06T14:13:58.806Z,5.10
2022-12-06T14:16:49.271Z,5.60
2022-12-06T14:19:29.784Z,5.50
2022-12-06T14:22:01.275Z,5.10
2022-12-06T14:24:36.569Z,5.30
2022-12-06T14:27:17.655Z,5.80
2022-12-06T14:30:06.125Z,5.20
2022-12-06T14:32:45.315Z,5.60
2022-12-06T14:35:15.836Z,4.60
2022-12-06T14:37:51.724Z,5.30
2022-12-06T14:40:51.141Z,6.20
2022-12-06T14:43:20.584Z,4.80
2022-12-06T14:45:51.451Z,4.70
2022-12-06T14:48:22.395Z,5.10
2022-12-06T14:50:53.615Z,5.40
2022-12-06T14:53:38.163Z,4.90
2022-12-06T14:56:32.494Z,5.60
2022-12-06T14:59:11.855Z,5.60
2022-12-06T15:01:54.874Z,7.10
2022-12-06T15:04:50.178Z,9.10
2022-12-06T15:07:32.399Z,6.60
2022-12-06T15:10:26.118Z,6.10
2022-12-06T15:12:57.839Z,6.10
2022-12-06T15:15:42.174Z,6.90
2022-12-06T15:18:19.355Z,6.80
2022-12-06T15:20:50.298Z,6.80
2022-12-06T15:23:59.456Z,7.20
2022-12-06T15:26:29.114Z,7.70
2022-12-06T15:28:57.874Z,7.90
2022-12-06T15:31:28.707Z,7.30
2022-12-06T15:33:57.784Z,7.50
2022-12-06T15:36:34.934Z,7.20
2022-12-06T15:39:04.476Z,6.90
2022-12-06T15:41:33.613Z,8.60
2022-12-06T15:44:02.277Z,7.30
2022-12-06T15:46:33.395Z,8.10
2022-12-06T15:49:02.315Z,8.20
2022-12-06T15:51:31.913Z,8.80
2022-12-06T15:54:03.296Z,8.40
2022-12-06T15:56:35.352Z,8.20
2022-12-06T15:59:06.074Z,9.90
2022-12-06T16:01:45.341Z,9.00
2022-12-06T16:04:22.238Z,9.80
2022-12-06T16:06:51.657Z,10.80
2022-12-06T16:09:20.514Z,10.40
2022-12-06T16:11:50.875Z,12.10
2022-12-06T16:14:19.594Z,19.40
2022-12-06T16:16:49.832Z,19.80
2022-12-06T16:19:19.356Z,11.90
2022-12-06T16:21:58.375Z,11.40
2022-12-06T16:24:28.734Z,12.10
2022-12-06T16:26:58.654Z,9.90
2022-12-06T16:29:27.835Z,10.90
2022-12-06T16:31:57.867Z,11.80
2022-12-06T16:34:28.958Z,10.50
2022-12-06T16:37:06.860Z,12.30
2022-12-06T16:39:36.048Z,15.40
2022-12-06T16:42:05.431Z,13.40
2022-12-06T16:44:51.267Z,11.00
2022-12-06T16:49:49.511Z,11.70
2022-12-06T16:52:18.447Z,11.00
2022-12-06T16:54:47.420Z,11.50
2022-12-06T16:57:16.516Z,8.80
2022-12-06T16:59:45.695Z,9.30
2022-12-06T17:02:31.488Z,8.90
2022-12-06T17:05:06.453Z,7.60
2022-12-06T17:07:37.509Z,11.80
2022-12-06T17:10:08.235Z,10.60
2022-12-06T17:12:37.186Z,9.70
2022-12-06T17:15:08.335Z,8.80
2022-12-06T17:17:37.073Z,9.30
2022-12-06T17:20:10.154Z,7.80
2022-12-06T17:22:40.596Z,8.30
2022-12-06T17:25:11.637Z,8.00
2022-12-06T17:27:41.295Z,10.90
2022-12-06T17:30:19.275Z,10.50
2022-12-06T17:32:48.690Z,8.80
2022-12-06T17:35:17.695Z,7.90
2022-12-06T17:37:46.514Z,7.90
2022-12-06T17:40:22.891Z,8.10
2022-12-06T17:43:00.557Z,7.50
2022-12-06T17:45:29.655Z,8.70
2022-12-06T17:47:58.392Z,10.20
2022-12-06T17:50:27.301Z,9.80
2022-12-06T17:52:56.011Z,9.20
2022-12-06T17:55:24.750Z,8.90
2022-12-06T17:57:53.552Z,9.80
2022-12-06T18:00:22.709Z,9.60
2022-12-06T18:02:51.498Z,10.30
2022-12-06T18:05:20.530Z,10.90
2022-12-06T18:07:51.253Z,10.10
2022-12-06T18:10:20.029Z,10.40
2022-12-06T18:12:48.792Z,10.20
2022-12-06T18:15:36.289Z,11.00
2022-12-06T18:18:05.550Z,8.60
2022-12-06T18:20:34.293Z,10.90
2022-12-06T18:23:02.909Z,10.40
2022-12-06T18:25:31.651Z,9.10
2022-12-06T18:28:00.376Z,11.10
2022-12-06T18:30:29.133Z,10.90
2022-12-06T18:33:02.456Z,9.20
2022-12-06T18:35:31.289Z,8.60
2022-12-06T18:38:00.056Z,9.40
2022-12-06T18:40:31.251Z,8.70
2022-12-06T18:43:00.130Z,10.50
2022-12-06T18:45:29.399Z,10.20
2022-12-06T18:47:58.164Z,9.70
2022-12-06T18:50:26.952Z,9.70
2022-12-06T18:52:55.730Z,10.30
2022-12-06T18:55:24.825Z,10.10
2022-12-06T18:57:53.654Z,7.40
2022-12-06T19:00:23.051Z,8.10
2022-12-06T19:02:51.923Z,7.50
2022-12-06T19:05:46.075Z,9.00
2022-12-06T19:08:09.520Z,9.40
2022-12-06T19:10:38.749Z,9.20
2022-12-06T19:13:07.569Z,9.10
2022-12-06T19:15:36.304Z,9.00
2022-12-06T19:18:06.291Z,9.60
2022-12-06T19:20:35.810Z,10.70
2022-12-06T19:23:04.860Z,9.90
2022-12-06T19:25:33.605Z,9.00
2022-12-06T19:28:02.809Z,9.80
2022-12-06T19:30:31.499Z,10.00
2022-12-06T19:33:00.711Z,10.30
2022-12-06T19:35:29.669Z,10.00
2022-12-06T19:37:58.310Z,10.10
2022-12-06T19:40:28.050Z,9.60
2022-12-06T19:43:16.130Z,11.70
2022-12-06T19:45:45.141Z,11.20
2022-12-06T19:48:15.150Z,11.30
2022-12-06T19:50:45.278Z,10.10
2022-12-06T19:53:14.091Z,11.10
2022-12-06T19:55:46.869Z,10.60
2022-12-06T19:58:15.951Z,10.20
2022-12-06T20:00:46.313Z,11.60
2022-12-06T20:03:15.173Z,11.00
2022-12-06T20:05:44.269Z,11.20
2022-12-06T20:08:13.146Z,11.20
2022-12-06T20:10:44.895Z,11.10
2022-12-06T20:13:13.956Z,12.40
2022-12-06T20:15:42.998Z,10.90
2022-12-06T20:18:11.950Z,11.90
2022-12-06T20:20:40.610Z,11.30
2022-12-06T20:23:10.768Z,12.20
2022-12-06T20:25:39.770Z,12.30
2022-12-06T20:28:13.305Z,13.80
2022-12-06T20:30:42.509Z,12.90
2022-12-06T20:33:11.176Z,12.90
2022-12-06T20:35:40.010Z,11.00
2022-12-06T20:38:08.670Z,9.40
2022-12-06T20:40:37.431Z,9.10
2022-12-06T20:43:06.097Z,8.90
2022-12-06T20:45:34.896Z,8.20
2022-12-06T20:48:03.772Z,10.20
2022-12-06T20:50:32.607Z,9.90
2022-12-06T20:53:01.298Z,10.70
2022-12-06T20:55:30.128Z,9.70
2022-12-06T20:57:59.180Z,8.90
2022-12-06T21:00:27.937Z,10.10
2022-12-06T21:02:56.982Z,9.90
2022-12-06T21:05:25.712Z,8.20
2022-12-06T21:07:54.418Z,8.80
2022-12-06T21:10:23.379Z,8.80
2022-12-06T21:12:52.141Z,8.80
2022-12-06T21:15:20.937Z,9.10
2022-12-06T21:17:49.704Z,8.80
2022-12-06T21:20:18.411Z,9.20
2022-12-06T21:22:49.945Z,9.00
2022-12-06T21:25:18.811Z,7.70
2022-12-06T21:27:47.595Z,8.60
2022-12-06T21:30:16.609Z,8.90
2022-12-06T21:32:45.269Z,9.40
2022-12-06T21:35:13.949Z,9.10
2022-12-06T21:37:42.690Z,8.70
2022-12-06T21:40:12.290Z,8.80
2022-12-06T21:42:41.069Z,8.40
2022-12-06T21:45:10.587Z,8.20
2022-12-06T21:47:39.469Z,7.10
2022-12-06T21:50:09.211Z,5.90
2022-12-06T21:52:37.890Z,6.40
2022-12-06T21:55:07.548Z,7.00
2022-12-06T21:57:37.728Z,7.10
2022-12-06T22:00:07.888Z,6.60
2022-12-06T22:02:36.699Z,6.50
2022-12-06T22:05:05.892Z,7.40
2022-12-06T22:07:35.424Z,6.00
2022-12-06T22:10:04.848Z,5.80
2022-12-06T22:12:34.542Z,5.30
2022-12-06T22:15:04.071Z,7.50
2022-12-06T22:17:32.750Z,7.90
2022-12-06T22:20:01.741Z,7.00
2022-12-06T22:22:30.650Z,7.60
2022-12-06T22:24:59.609Z,7.80
2022-12-06T22:27:28.529Z,7.20
2022-12-06T22:29:57.209Z,6.80
2022-12-06T22:32:25.931Z,8.30
2022-12-06T22:34:54.649Z,6.60
2022-12-06T22:37:28.367Z,7.30
2022-12-06T22:39:57.356Z,7.90
2022-12-06T22:42:25.970Z,6.90
2022-12-06T22:44:54.749Z,6.40
2022-12-06T22:47:23.332Z,7.00
2022-12-06T22:49:52.105Z,6.40
2022-12-06T22:52:20.784Z,7.80
2022-12-06T22:54:49.502Z,7.10
2022-12-06T22:57:18.134Z,6.70
2022-12-06T22:59:50.218Z,6.00
2022-12-06T23:02:19.052Z,6.30
2022-12-06T23:04:51.548Z,7.20
2022-12-06T23:07:23.449Z,7.50
2022-12-06T23:09:55.295Z,6.30
2022-12-06T23:12:27.088Z,5.40
2022-12-06T23:14:59.211Z,6.10
2022-12-06T23:17:31.148Z,6.80
2022-12-06T23:20:03.422Z,6.10
2022-12-06T23:22:37.127Z,5.40
2022-12-06T23:25:09.668Z,5.60
2022-12-06T23:27:38.470Z,4.80
2022-12-06T23:30:12.338Z,5.80
2022-12-06T23:32:41.224Z,4.70
2022-12-06T23:35:09.976Z,4.90
2022-12-06T23:37:42.521Z,4.60
2022-12-06T23:40:15.608Z,4.70
2022-12-06T23:42:52.548Z,5.20
2022-12-06T23:45:26.064Z,5.50
2022-12-06T23:47:58.173Z,4.80
2022-12-06T23:50:30.344Z,4.40
2022-12-06T23:53:04.369Z,4.20
2022-12-06T23:55:36.184Z,5.30
2022-12-06T23:58:09.797Z,5.30
